M I D A S
Marine Information and Data Acquisition System
Tripno 1623 of the Zeeleeuw from 2008-12-19 08:01:44 to 2008-12-19 15:37:09
Back to CruiseResearch ActivitiesStationsMapUnderway DataData graphs

EquipmentUnitsComment
TimeDGPSUTC
LatitudeDGPSDM.mWGS84
LongitudeDGPSDM.mWGS84
HeadingGyrodeg 
SOGDGPSknotsSpeed over ground
COGDGPSdegCourse over ground
DepthEcho soundermeters200 kHz
Missing or incorrect values are displayed as -999
Navigation data collected by the RV Zeeleeuw from 2008-12-19 07:58:03 to 2008-12-19 15:40:02
                                                                                    Next 1000 lines
Time Latitude Longitude Heading SOG COG Depth
2008-12-19 07:58:13 51°13.661 2°55.958 113.1 0.2 202 7.4
2008-12-19 07:58:18 51°13.661 2°55.958 111.7 0.1 211 7.4
2008-12-19 07:58:23 51°13.661 2°55.958 109.9 0.1 244 7.4
2008-12-19 07:58:28 51°13.66 2°55.957 108.2 0.2 249 7.5
2008-12-19 07:58:33 51°13.66 2°55.956 106.6 0.4 275 7.5
2008-12-19 07:58:38 51°13.66 2°55.955 105.5 0.6 283 7.6
2008-12-19 07:58:43 51°13.66 2°55.953 104.5 0.9 280 7.9
2008-12-19 07:58:48 51°13.661 2°55.951 104.1 1.1 282 8.2
2008-12-19 07:58:53 51°13.661 2°55.948 104.1 1.4 282 8.3
2008-12-19 07:58:58 51°13.662 2°55.945 104.5 1.6 284 8.3
2008-12-19 07:59:03 51°13.663 2°55.941 105.1 1.9 284 8.4
2008-12-19 07:59:08 51°13.663 2°55.937 106.1 2.1 284 -999
2008-12-19 07:59:13 51°13.664 2°55.932 107.3 2.3 287 -999
2008-12-19 07:59:18 51°13.665 2°55.926 108.2 2.6 286 -999
2008-12-19 07:59:23 51°13.666 2°55.92 108.5 3 287 -999
2008-12-19 07:59:28 51°13.668 2°55.914 108.8 3.3 287 -999
2008-12-19 07:59:33 51°13.669 2°55.906 109.3 3.5 288 -999
2008-12-19 07:59:38 51°13.671 2°55.899 110.1 3.8 287 -999
2008-12-19 07:59:44 51°13.673 2°55.889 110.8 3.9 289 -999
2008-12-19 07:59:49 51°13.674 2°55.88 111.1 4 289 -999
2008-12-19 07:59:53 51°13.676 2°55.874 111.2 4.1 289 -999
2008-12-19 07:59:58 51°13.678 2°55.865 111.3 4.2 290 -999
2008-12-19 08:00:04 51°13.68 2°55.854 111.5 4.3 290 -999
2008-12-19 08:00:09 51°13.683 2°55.845 111.9 4.3 292 -999
2008-12-19 08:00:13 51°13.684 2°55.838 112 4.4 292 -999
2008-12-19 08:00:18 51°13.686 2°55.829 112.3 4.4 291 -999
2008-12-19 08:00:23 51°13.689 2°55.82 112.6 4.5 292 -999
2008-12-19 08:00:29 51°13.692 2°55.809 112.7 4.5 292 -999
2008-12-19 08:00:33 51°13.694 2°55.801 112.9 4.6 292 -999
2008-12-19 08:00:38 51°13.696 2°55.792 113 4.6 293 -999
2008-12-19 08:00:43 51°13.699 2°55.783 113 4.5 293 -999
2008-12-19 08:00:48 51°13.701 2°55.774 113 4.2 294 -999
2008-12-19 08:00:53 51°13.703 2°55.766 113 3.8 293 -999
2008-12-19 08:00:58 51°13.705 2°55.76 113 3.1 291 -999
2008-12-19 08:01:03 51°13.706 2°55.755 112 2.2 291 -999
2008-12-19 08:01:08 51°13.707 2°55.752 109.8 1.2 294 -999
2008-12-19 08:01:13 51°13.707 2°55.751 106.5 0.3 317 15.1
2008-12-19 08:01:18 51°13.708 2°55.752 102.6 0.5 62 15
2008-12-19 08:01:22 51°13.708 2°55.754 97.5 1 83 14.9
2008-12-19 08:01:27 51°13.708 2°55.757 93.2 1.5 77 14.9
2008-12-19 08:01:33 51°13.709 2°55.761 84 1.5 70 -999
2008-12-19 08:01:38 51°13.709 2°55.763 75.9 1.1 73 -999
2008-12-19 08:01:43 51°13.71 2°55.765 71.3 0.5 71 4.7
2008-12-19 08:01:48 51°13.71 2°55.765 68.5 0.2 140 4.9
2008-12-19 08:01:53 51°13.709 2°55.764 65.6 0.6 227 14.3
2008-12-19 08:01:57 51°13.708 2°55.763 62.5 1 228 14.3
2008-12-19 08:02:02 51°13.707 2°55.761 60.3 1.5 230 14.7
2008-12-19 08:02:07 51°13.706 2°55.758 59 1.7 231 14.8
2008-12-19 08:02:12 51°13.704 2°55.754 58.5 2 229 4.8
2008-12-19 08:02:17 51°13.702 2°55.75 58.5 2.1 234 -999
2008-12-19 08:02:23 51°13.7 2°55.746 59.1 2.1 232 -999
2008-12-19 08:02:28 51°13.698 2°55.743 60.3 1.7 233 -999
2008-12-19 08:02:33 51°13.697 2°55.741 61.3 0.9 228 -999
2008-12-19 08:02:38 51°13.697 2°55.741 61.7 0.2 145 -999
2008-12-19 08:02:43 51°13.697 2°55.742 59.2 0.7 59 13.8
2008-12-19 08:02:48 51°13.699 2°55.745 55.1 1.6 49 -999
2008-12-19 08:02:53 51°13.701 2°55.748 48.4 2.2 38 -999
2008-12-19 08:02:58 51°13.704 2°55.751 38.8 2.6 34 -999
2008-12-19 08:03:03 51°13.707 2°55.754 29.1 2.3 24 -999
2008-12-19 08:03:08 51°13.709 2°55.755 23.5 1.8 29 -999
2008-12-19 08:03:13 51°13.711 2°55.757 20.7 1.2 31 4.7
2008-12-19 08:03:18 51°13.711 2°55.758 18.3 0.7 46 4.8
2008-12-19 08:03:22 51°13.711 2°55.759 16.3 0.3 117 4.6
2008-12-19 08:03:27 51°13.71 2°55.759 14.3 0.8 161 4.7
2008-12-19 08:03:32 51°13.709 2°55.76 12.6 1.2 174 14.5
2008-12-19 08:03:37 51°13.707 2°55.76 12 1.7 178 14.6
2008-12-19 08:03:42 51°13.704 2°55.76 12 2 182 14.8
2008-12-19 08:03:47 51°13.701 2°55.759 12.8 2 185 -999
2008-12-19 08:03:53 51°13.698 2°55.759 14.5 1.8 187 -999
2008-12-19 08:03:58 51°13.696 2°55.758 16.4 1.4 190 15.3
2008-12-19 08:04:03 51°13.696 2°55.758 18.1 0.4 168 -999
2008-12-19 08:04:08 51°13.696 2°55.759 16.7 0.5 14 -999
2008-12-19 08:04:13 51°13.698 2°55.759 10.5 1.2 5 -999
2008-12-19 08:04:18 51°13.7 2°55.759 5.1 2 358 15
2008-12-19 08:04:24 51°13.704 2°55.758 358.8 2.6 349 -999
2008-12-19 08:04:28 51°13.707 2°55.757 348.8 3.2 342 -999
2008-12-19 08:04:33 51°13.712 2°55.753 339.3 3.8 335 -999
2008-12-19 08:04:38 51°13.718 2°55.749 333 4.3 331 4.9
2008-12-19 08:04:43 51°13.723 2°55.743 329.9 5 327 -999
2008-12-19 08:04:48 51°13.73 2°55.737 328.2 5.5 327 13.7
2008-12-19 08:04:53 51°13.737 2°55.73 327.9 5.9 327 13.4
2008-12-19 08:04:57 51°13.742 2°55.723 327.6 6.4 325 13.1
2008-12-19 08:05:02 51°13.75 2°55.715 326.9 6.6 328 12.5
2008-12-19 08:05:07 51°13.758 2°55.707 327.6 6.9 327 11.9
2008-12-19 08:05:12 51°13.767 2°55.699 328.3 7.2 328 11.7
2008-12-19 08:05:17 51°13.776 2°55.69 328.8 7.4 329 11.5
2008-12-19 08:05:21 51°13.783 2°55.683 329.7 7.5 330 11.6
2008-12-19 08:05:26 51°13.792 2°55.675 330.4 7.5 329 11.5
2008-12-19 08:05:31 51°13.8 2°55.667 330.4 7.4 329 11.8
2008-12-19 08:05:36 51°13.809 2°55.659 330.4 7.4 330 11.5
2008-12-19 08:05:40 51°13.816 2°55.652 330.7 7.4 331 11.9
2008-12-19 08:05:45 51°13.825 2°55.645 331.3 7.3 332 11.9
2008-12-19 08:05:50 51°13.834 2°55.637 332.6 7.3 331 11.9
2008-12-19 08:05:54 51°13.841 2°55.631 333.2 7.3 333 11.8
2008-12-19 08:06:00 51°13.852 2°55.622 333.4 7.4 331 11.8
2008-12-19 08:06:05 51°13.861 2°55.614 333 7.4 332 11.8
2008-12-19 08:06:09 51°13.868 2°55.608 333.4 7.4 332 11.8
2008-12-19 08:06:14 51°13.878 2°55.601 334.2 7.4 334 11.8
2008-12-19 08:06:20 51°13.889 2°55.592 334.7 7.5 333 11.8
2008-12-19 08:06:25 51°13.898 2°55.584 334.4 7.5 333 11.8
2008-12-19 08:06:29 51°13.905 2°55.578 334.1 7.5 333 11.8
2008-12-19 08:06:34 51°13.915 2°55.571 334.2 7.5 334 11.8
2008-12-19 08:06:40 51°13.926 2°55.562 334.5 7.5 334 11.9
2008-12-19 08:06:45 51°13.935 2°55.555 334.6 7.5 333 11.9
2008-12-19 08:06:49 51°13.943 2°55.549 334.8 7.5 334 11.9
2008-12-19 08:06:54 51°13.952 2°55.542 334.8 7.6 334 11.9
2008-12-19 08:07:00 51°13.964 2°55.533 334.9 7.7 334 11.9
2008-12-19 08:07:05 51°13.974 2°55.525 334.9 7.9 334 11.9
2008-12-19 08:07:09 51°13.981 2°55.519 334.9 8 334 12
2008-12-19 08:07:14 51°13.992 2°55.511 334.8 8.1 333 11.9
2008-12-19 08:07:20 51°14.004 2°55.501 334.4 8.3 333 12
2008-12-19 08:07:25 51°14.014 2°55.493 333.8 8.4 332 11.9
2008-12-19 08:07:29 51°14.022 2°55.486 333.4 8.4 332 11.2
2008-12-19 08:07:34 51°14.033 2°55.477 333.3 8.5 332 11.7
2008-12-19 08:07:40 51°14.045 2°55.466 332.9 8.6 332 11.8
2008-12-19 08:07:45 51°14.056 2°55.458 333.9 8.6 333 11.8
2008-12-19 08:07:49 51°14.064 2°55.451 333.8 8.6 332 11.8
2008-12-19 08:07:54 51°14.075 2°55.442 333.1 8.7 331 11.8
2008-12-19 08:08:00 51°14.088 2°55.431 332.7 8.7 332 11.4
2008-12-19 08:08:05 51°14.099 2°55.422 333.5 8.7 333 11.7
2008-12-19 08:08:09 51°14.107 2°55.415 334.1 8.7 332 11.9
2008-12-19 08:08:14 51°14.118 2°55.406 334.1 8.7 332 11.9
2008-12-19 08:08:20 51°14.131 2°55.395 334.2 8.8 332 11.9
2008-12-19 08:08:25 51°14.142 2°55.386 333.8 8.8 331 11.9
2008-12-19 08:08:29 51°14.15 2°55.378 333 8.9 331 11.9
2008-12-19 08:08:34 51°14.161 2°55.369 333 8.9 331 11.9
2008-12-19 08:08:40 51°14.174 2°55.357 332.7 8.9 330 12
2008-12-19 08:08:45 51°14.184 2°55.347 331.3 9 327 12
2008-12-19 08:08:49 51°14.193 2°55.338 329.2 9 326 12.1
2008-12-19 08:08:54 51°14.203 2°55.326 327.2 9 323 12
2008-12-19 08:09:00 51°14.214 2°55.312 324.9 9 322 12
2008-12-19 08:09:05 51°14.224 2°55.299 322.8 9 319 12
2008-12-19 08:09:09 51°14.231 2°55.289 321.5 9 319 12
2008-12-19 08:09:14 51°14.24 2°55.275 320 9 316 12.1
2008-12-19 08:09:20 51°14.251 2°55.258 317.7 8.9 315 12
2008-12-19 08:09:25 51°14.259 2°55.243 315.6 9.1 312 12
2008-12-19 08:09:29 51°14.266 2°55.232 313.4 9 311 11.9
2008-12-19 08:09:34 51°14.274 2°55.216 312.2 9 310 12.1
2008-12-19 08:09:40 51°14.284 2°55.198 311.7 9 310 12
2008-12-19 08:09:45 51°14.292 2°55.183 311.1 9 310 11.7
2008-12-19 08:09:49 51°14.298 2°55.171 310.9 9 310 11.6
2008-12-19 08:09:54 51°14.306 2°55.155 310.9 9.1 309 12.1
2008-12-19 08:10:00 51°14.316 2°55.136 309.9 9.2 307 12.5
2008-12-19 08:10:05 51°14.323 2°55.12 308.9 9.3 308 12.5
2008-12-19 08:10:10 51°14.331 2°55.103 308.3 9.5 306 12.6
2008-12-19 08:10:15 51°14.338 2°55.085 306.8 9.5 304 12.7
2008-12-19 08:10:20 51°14.346 2°55.068 305.5 9.7 302 12.5
2008-12-19 08:10:25 51°14.353 2°55.049 304.6 9.7 303 12.1
2008-12-19 08:10:30 51°14.36 2°55.031 304.6 9.9 302 12.2
2008-12-19 08:10:35 51°14.368 2°55.013 304.5 9.9 302 11.7
2008-12-19 08:10:40 51°14.375 2°54.993 303.1 10.1 300 11.9
2008-12-19 08:10:45 51°14.382 2°54.974 301.6 10.3 302 11.9
2008-12-19 08:10:49 51°14.388 2°54.959 303.3 10.5 304 11.8
2008-12-19 08:10:55 51°14.399 2°54.936 307.2 10.7 309 12
2008-12-19 08:11:00 51°14.409 2°54.918 311.4 10.8 312 12.1
2008-12-19 08:11:05 51°14.42 2°54.901 314.3 10.9 314 12
2008-12-19 08:11:10 51°14.431 2°54.884 316.9 11.2 317 12.1
2008-12-19 08:11:14 51°14.44 2°54.871 319.6 11.3 320 12.2
2008-12-19 08:11:20 51°14.455 2°54.852 322.2 11.5 321 12
2008-12-19 08:11:25 51°14.468 2°54.837 323.9 11.6 324 12.1
2008-12-19 08:11:30 51°14.482 2°54.823 326.9 11.6 326 12.1
2008-12-19 08:11:34 51°14.493 2°54.812 329.5 11.7 328 12.1
2008-12-19 08:11:40 51°14.509 2°54.795 329.8 11.8 325 11.6
2008-12-19 08:11:45 51°14.523 2°54.78 328.3 11.8 327 11.4
2008-12-19 08:11:50 51°14.536 2°54.766 328.4 11.8 326 11.3
2008-12-19 08:11:55 51°14.55 2°54.752 328.6 11.9 328 11.4
2008-12-19 08:12:00 51°14.564 2°54.738 329.3 11.9 328 11.2
2008-12-19 08:12:05 51°14.578 2°54.724 329.2 11.9 328 11
2008-12-19 08:12:10 51°14.593 2°54.711 329.4 11.9 330 11.2
2008-12-19 08:12:15 51°14.607 2°54.697 329.9 11.9 328 11
2008-12-19 08:12:20 51°14.621 2°54.683 329.5 11.9 328 11
2008-12-19 08:12:25 51°14.635 2°54.67 329 11.9 329 11.2
2008-12-19 08:12:30 51°14.649 2°54.656 328.3 11.7 328 10.8
2008-12-19 08:12:35 51°14.663 2°54.644 329.2 11.8 330 11.1
2008-12-19 08:12:40 51°14.677 2°54.63 329.1 11.9 329 10.9
2008-12-19 08:12:45 51°14.691 2°54.617 329.8 11.9 331 11
2008-12-19 08:12:50 51°14.706 2°54.604 330.6 11.8 330 11.1
2008-12-19 08:12:55 51°14.72 2°54.592 331.2 11.9 332 11
2008-12-19 08:13:00 51°14.735 2°54.58 332.9 11.9 332 11.1
2008-12-19 08:13:05 51°14.749 2°54.567 332.7 11.8 332 10.8
2008-12-19 08:13:09 51°14.761 2°54.558 332.8 11.9 333 11
2008-12-19 08:13:15 51°14.778 2°54.543 333.8 11.9 333 11
2008-12-19 08:13:20 51°14.793 2°54.532 334.1 11.9 333 10.6
2008-12-19 08:13:25 51°14.808 2°54.52 334.1 11.9 332 11.1
2008-12-19 08:13:30 51°14.822 2°54.508 333.6 11.9 333 10.8
2008-12-19 08:13:34 51°14.834 2°54.498 333.2 12 331 10.9
2008-12-19 08:13:40 51°14.852 2°54.483 332.4 12 333 10.7
2008-12-19 08:13:45 51°14.866 2°54.471 332.8 12 333 10.4
2008-12-19 08:13:50 51°14.881 2°54.458 333.7 12 333 10.4
2008-12-19 08:13:54 51°14.893 2°54.449 333.5 11.9 333 10.4
2008-12-19 08:14:00 51°14.91 2°54.434 333.6 12.1 333 10.2
2008-12-19 08:14:05 51°14.925 2°54.423 333.7 11.9 334 10.6
2008-12-19 08:14:10 51°14.94 2°54.411 334.1 11.8 333 9.8
2008-12-19 08:14:15 51°14.955 2°54.399 333.7 11.8 333 9.5
2008-12-19 08:14:20 51°14.969 2°54.387 333.7 11.8 332 9.7
2008-12-19 08:14:25 51°14.984 2°54.374 333.3 11.8 332 9.6
2008-12-19 08:14:30 51°14.998 2°54.363 333.3 11.9 333 9.8
2008-12-19 08:14:35 51°15.013 2°54.351 334.1 11.9 333 11.7
2008-12-19 08:14:40 51°15.028 2°54.339 334.2 12 333 12.4
2008-12-19 08:14:45 51°15.043 2°54.327 334.4 12.1 334 12.3
2008-12-19 08:14:50 51°15.058 2°54.314 333.6 12 332 13
2008-12-19 08:14:55 51°15.072 2°54.303 333 11.9 333 12.6
2008-12-19 08:15:00 51°15.087 2°54.29 332.7 12 330 12.6
2008-12-19 08:15:05 51°15.102 2°54.276 331.3 12 330 12.9
2008-12-19 08:15:10 51°15.116 2°54.263 331.1 11.9 330 12.2
2008-12-19 08:15:15 51°15.131 2°54.25 331.2 12 331 12.4
2008-12-19 08:15:20 51°15.145 2°54.237 331.3 12 330 12.7
2008-12-19 08:15:25 51°15.16 2°54.224 331.1 12 331 12.6
2008-12-19 08:15:29 51°15.171 2°54.213 330.9 12 330 12.3
2008-12-19 08:15:34 51°15.186 2°54.2 330.8 12.1 329 12.7
2008-12-19 08:15:40 51°15.203 2°54.184 330.8 12 329 12.8
2008-12-19 08:15:45 51°15.217 2°54.17 330 12 329 12.3
2008-12-19 08:15:50 51°15.231 2°54.157 330.4 12 330 12.7
2008-12-19 08:15:54 51°15.243 2°54.146 330.9 12 329 12.1
2008-12-19 08:16:00 51°15.26 2°54.13 330.9 12 330 12.4
2008-12-19 08:16:05 51°15.275 2°54.116 330.5 11.9 329 12.5
2008-12-19 08:16:10 51°15.289 2°54.103 330.5 11.9 330 12
2008-12-19 08:16:14 51°15.3 2°54.092 330.6 12 328 12
2008-12-19 08:16:20 51°15.317 2°54.075 330.5 12 328 12.4
2008-12-19 08:16:25 51°15.331 2°54.061 329.9 12 328 12.8
2008-12-19 08:16:30 51°15.345 2°54.048 329.9 12 329 12.7
2008-12-19 08:16:35 51°15.36 2°54.034 330.7 11.9 328 12.6
2008-12-19 08:16:40 51°15.374 2°54.021 331 12 331 12.8
2008-12-19 08:16:45 51°15.388 2°54.007 330.5 11.9 328 12.9
2008-12-19 08:16:50 51°15.403 2°53.994 330.5 12 330 12.6
2008-12-19 08:16:55 51°15.417 2°53.979 330.3 12 327 12.9
2008-12-19 08:17:00 51°15.431 2°53.966 329.8 11.9 328 12.8
2008-12-19 08:17:05 51°15.445 2°53.952 328.9 11.9 327 12.5
2008-12-19 08:17:10 51°15.459 2°53.938 328.6 11.8 328 12.8
2008-12-19 08:17:15 51°15.472 2°53.924 328.5 11.7 330 12.4
2008-12-19 08:17:20 51°15.487 2°53.912 331 11.7 331 12.6
2008-12-19 08:17:25 51°15.501 2°53.9 332.9 11.8 332 12.6
2008-12-19 08:17:29 51°15.513 2°53.89 334 11.7 333 12.4
2008-12-19 08:17:35 51°15.531 2°53.877 336.1 11.7 335 12.6
2008-12-19 08:17:40 51°15.545 2°53.867 336.5 11.8 335 12
2008-12-19 08:17:45 51°15.56 2°53.856 336.7 11.8 335 12.2
2008-12-19 08:17:50 51°15.575 2°53.845 337.2 11.7 335 12.2
2008-12-19 08:17:55 51°15.59 2°53.835 337.8 11.8 337 12
2008-12-19 08:18:00 51°15.605 2°53.824 338.1 11.8 336 12
2008-12-19 08:18:05 51°15.62 2°53.814 338 11.8 336 12.1
2008-12-19 08:18:10 51°15.635 2°53.803 337.6 11.8 336 12
2008-12-19 08:18:14 51°15.647 2°53.794 337.4 11.9 335 11.6
2008-12-19 08:18:20 51°15.665 2°53.781 337.1 11.9 336 12.1
2008-12-19 08:18:25 51°15.68 2°53.77 337.5 11.9 337 11.9
2008-12-19 08:18:30 51°15.695 2°53.76 338 11.9 336 11.6
2008-12-19 08:18:35 51°15.71 2°53.749 338.3 11.9 337 12
2008-12-19 08:18:40 51°15.725 2°53.739 337.8 11.9 336 12.2
2008-12-19 08:18:45 51°15.741 2°53.728 338 11.9 337 12.3
2008-12-19 08:18:50 51°15.756 2°53.718 338 11.8 336 12.1
2008-12-19 08:18:54 51°15.768 2°53.71 338.4 11.8 337 12.1
2008-12-19 08:19:00 51°15.786 2°53.697 338.1 11.9 335 12.3
2008-12-19 08:19:05 51°15.801 2°53.686 337.8 12 336 12.4
2008-12-19 08:19:09 51°15.813 2°53.677 337.1 11.9 335 12.2
2008-12-19 08:19:14 51°15.828 2°53.666 337.1 12 335 12.4
2008-12-19 08:19:20 51°15.846 2°53.653 336.3 11.9 335 12.3
2008-12-19 08:19:25 51°15.861 2°53.642 336.2 12 335 12.2
2008-12-19 08:19:29 51°15.873 2°53.632 335.6 11.9 334 12.1
2008-12-19 08:19:34 51°15.888 2°53.621 335.6 11.9 334 12.2
2008-12-19 08:19:40 51°15.905 2°53.607 334.9 11.9 334 12.4
2008-12-19 08:19:45 51°15.92 2°53.595 334.8 11.8 333 12.4
2008-12-19 08:19:50 51°15.935 2°53.583 334.2 11.8 334 12.3
2008-12-19 08:19:55 51°15.95 2°53.572 335 11.9 334 12.5
2008-12-19 08:20:00 51°15.964 2°53.56 334.9 11.9 333 12.5
2008-12-19 08:20:05 51°15.979 2°53.548 334.2 12 333 12.5
2008-12-19 08:20:10 51°15.994 2°53.536 334.5 12 334 12.3
2008-12-19 08:20:15 51°16.009 2°53.524 334.6 12 333 12.4
2008-12-19 08:20:20 51°16.024 2°53.512 334.4 11.9 334 12.7
2008-12-19 08:20:25 51°16.038 2°53.5 334.8 11.9 333 12.6
2008-12-19 08:20:30 51°16.053 2°53.49 335.6 11.9 335 12.5
2008-12-19 08:20:34 51°16.065 2°53.48 336.1 12 334 12.5
2008-12-19 08:20:40 51°16.083 2°53.466 336.1 12 335 12.4
2008-12-19 08:20:45 51°16.099 2°53.455 336.1 11.9 334 12.9
2008-12-19 08:20:50 51°16.113 2°53.444 335.4 12 335 12.6
2008-12-19 08:20:55 51°16.128 2°53.432 335 12 333 12.7
2008-12-19 08:21:00 51°16.143 2°53.42 334.9 12 334 12.6
2008-12-19 08:21:05 51°16.158 2°53.408 334.6 12.1 334 12.5
2008-12-19 08:21:10 51°16.173 2°53.397 334.9 11.9 334 12.9
2008-12-19 08:21:15 51°16.188 2°53.386 334.9 12 334 12.7
2008-12-19 08:21:20 51°16.203 2°53.373 334.7 12 333 12.8
2008-12-19 08:21:25 51°16.218 2°53.362 334.2 12 334 12.7
2008-12-19 08:21:30 51°16.233 2°53.35 334.1 11.9 333 12.6
2008-12-19 08:21:35 51°16.248 2°53.338 333.7 11.9 333 12.8
2008-12-19 08:21:40 51°16.262 2°53.326 332.9 11.8 332 13
2008-12-19 08:21:45 51°16.277 2°53.314 332.1 11.8 332 12.6
2008-12-19 08:21:50 51°16.291 2°53.301 331.9 11.8 332 12.9
2008-12-19 08:21:55 51°16.306 2°53.289 332 11.9 332 12.7
2008-12-19 08:22:00 51°16.321 2°53.278 332.4 11.8 333 13.2
2008-12-19 08:22:05 51°16.335 2°53.266 332.6 11.8 333 12.8
2008-12-19 08:22:09 51°16.347 2°53.256 333 11.8 333 12.9
2008-12-19 08:22:15 51°16.364 2°53.241 332.7 11.9 332 12.8
2008-12-19 08:22:20 51°16.379 2°53.23 333.3 11.9 333 12.9
2008-12-19 08:22:25 51°16.393 2°53.217 333.1 11.8 332 12.9
2008-12-19 08:22:30 51°16.408 2°53.206 332.9 11.9 334 12.8
2008-12-19 08:22:35 51°16.423 2°53.194 333.4 11.8 333 12.9
2008-12-19 08:22:40 51°16.437 2°53.183 333.4 11.8 334 12.6
2008-12-19 08:22:45 51°16.452 2°53.171 333.4 11.8 333 12.8
2008-12-19 08:22:50 51°16.467 2°53.159 333.3 11.9 332 12.8
2008-12-19 08:22:54 51°16.478 2°53.149 332.4 11.9 332 13.1
2008-12-19 08:23:00 51°16.496 2°53.134 332.4 11.8 332 13
2008-12-19 08:23:05 51°16.51 2°53.122 332.5 11.8 332 12.8
2008-12-19 08:23:10 51°16.524 2°53.11 332.1 11.8 332 12.6
2008-12-19 08:23:15 51°16.539 2°53.097 331.4 11.8 332 12.9
2008-12-19 08:23:20 51°16.553 2°53.085 331.7 11.8 332 12.6
2008-12-19 08:23:25 51°16.568 2°53.073 331.8 11.9 331 12.5
2008-12-19 08:23:30 51°16.582 2°53.06 331.3 11.9 332 12.7
2008-12-19 08:23:35 51°16.597 2°53.048 331.9 11.9 332 12.7
2008-12-19 08:23:40 51°16.611 2°53.035 332.1 11.9 332 12.7
2008-12-19 08:23:45 51°16.626 2°53.023 332.4 11.9 333 12.6
2008-12-19 08:23:50 51°16.641 2°53.011 332.4 11.9 332 12.5
2008-12-19 08:23:55 51°16.655 2°52.999 332.7 11.7 333 12.5
2008-12-19 08:24:00 51°16.67 2°52.988 332.7 11.8 333 12.4
2008-12-19 08:24:05 51°16.685 2°52.976 332.8 11.9 334 12.6
2008-12-19 08:24:10 51°16.699 2°52.964 332.7 11.7 332 12.1
2008-12-19 08:24:15 51°16.713 2°52.952 332.3 11.8 334 11.8
2008-12-19 08:24:20 51°16.728 2°52.94 333.1 11.7 332 12.1
2008-12-19 08:24:25 51°16.742 2°52.928 332 11.8 332 11.6
2008-12-19 08:24:29 51°16.754 2°52.919 332 11.6 333 11.8
2008-12-19 08:24:35 51°16.771 2°52.905 332.7 11.6 335 11.1
2008-12-19 08:24:40 51°16.786 2°52.894 333 11.7 333 11
2008-12-19 08:24:45 51°16.8 2°52.882 332.8 11.7 332 10.5
2008-12-19 08:24:50 51°16.814 2°52.87 332.1 11.7 332 10.4
2008-12-19 08:24:54 51°16.826 2°52.86 332 11.8 331 10.6
2008-12-19 08:25:00 51°16.843 2°52.845 331.5 11.8 330 10.5
2008-12-19 08:25:05 51°16.857 2°52.832 330.9 11.8 331 10.4
2008-12-19 08:25:10 51°16.872 2°52.819 330.7 11.9 331 10.2
2008-12-19 08:25:14 51°16.884 2°52.809 331.1 11.9 332 10.2
2008-12-19 08:25:20 51°16.901 2°52.795 331.9 12 332 10.2
2008-12-19 08:25:25 51°16.916 2°52.782 332.2 11.9 331 10.3
2008-12-19 08:25:30 51°16.93 2°52.77 331.1 11.9 331 10.2
2008-12-19 08:25:35 51°16.945 2°52.758 332 12 332 10.4
2008-12-19 08:25:40 51°16.959 2°52.745 332.2 11.9 332 10.6
2008-12-19 08:25:45 51°16.974 2°52.733 332.6 11.9 332 10.5
2008-12-19 08:25:50 51°16.989 2°52.72 332.7 11.9 332 10.8
2008-12-19 08:25:55 51°17.004 2°52.708 332.6 12 333 10.8
2008-12-19 08:26:00 51°17.018 2°52.696 332.8 12 332 11.1
2008-12-19 08:26:05 51°17.033 2°52.683 332.5 12.1 330 11.2
2008-12-19 08:26:10 51°17.048 2°52.67 331.2 12 331 11.2
2008-12-19 08:26:15 51°17.062 2°52.658 331.1 11.9 332 10.9
2008-12-19 08:26:20 51°17.076 2°52.645 331.3 11.9 330 10.8
2008-12-19 08:26:25 51°17.091 2°52.632 330.5 11.9 331 10.3
2008-12-19 08:26:29 51°17.102 2°52.623 330.9 11.7 332 10.6
2008-12-19 08:26:35 51°17.119 2°52.608 331.4 11.7 332 10.2
2008-12-19 08:26:40 51°17.134 2°52.596 331.9 11.6 333 10.5
2008-12-19 08:26:45 51°17.148 2°52.584 332.4 11.7 332 10.3
2008-12-19 08:26:50 51°17.163 2°52.572 332.7 11.8 333 10.7
2008-12-19 08:26:55 51°17.177 2°52.56 332.1 11.7 332 10.8
2008-12-19 08:27:00 51°17.191 2°52.548 332.2 11.6 333 10.9
2008-12-19 08:27:05 51°17.206 2°52.536 332.7 11.8 332 10.7
2008-12-19 08:27:10 51°17.22 2°52.524 332.8 11.7 334 10.5
2008-12-19 08:27:14 51°17.232 2°52.515 333.6 11.8 334 11.1
2008-12-19 08:27:20 51°17.25 2°52.501 333.6 11.8 332 11.1
2008-12-19 08:27:25 51°17.264 2°52.489 332.7 11.9 333 11.1
2008-12-19 08:27:30 51°17.279 2°52.477 332.9 11.8 333 11
2008-12-19 08:27:35 51°17.294 2°52.465 333 11.9 334 11.4
2008-12-19 08:27:40 51°17.309 2°52.454 334.8 11.9 335 11.4
2008-12-19 08:27:45 51°17.323 2°52.443 335 11.8 335 11.3
2008-12-19 08:27:50 51°17.338 2°52.433 335.7 11.8 336 11
2008-12-19 08:27:55 51°17.354 2°52.422 336.7 11.9 335 11.3
2008-12-19 08:28:00 51°17.368 2°52.411 336.3 11.9 336 11.1
2008-12-19 08:28:05 51°17.383 2°52.399 335.7 11.9 334 11.5
2008-12-19 08:28:10 51°17.398 2°52.389 335.5 11.9 337 11.1
2008-12-19 08:28:15 51°17.414 2°52.378 336.3 12 336 11.5
2008-12-19 08:28:20 51°17.429 2°52.368 337.4 11.9 336 11.4
2008-12-19 08:28:25 51°17.444 2°52.356 336.5 12 335 11.3
2008-12-19 08:28:30 51°17.46 2°52.346 337.1 12.1 337 11.5
2008-12-19 08:28:35 51°17.475 2°52.336 336.9 11.9 337 11.4
2008-12-19 08:28:40 51°17.49 2°52.325 337.8 12 337 11.4
2008-12-19 08:28:45 51°17.506 2°52.316 338.5 12.1 338 11.4
2008-12-19 08:28:49 51°17.518 2°52.307 338.4 12.1 336 11.4
2008-12-19 08:28:55 51°17.536 2°52.294 337.6 12.1 336 11.2
2008-12-19 08:29:00 51°17.552 2°52.283 337 12.1 336 11.6
2008-12-19 08:29:05 51°17.567 2°52.273 336.9 12 337 11.4
2008-12-19 08:29:10 51°17.583 2°52.263 337.6 11.9 339 11.6
2008-12-19 08:29:15 51°17.597 2°52.253 338.5 11.8 337 11.2
2008-12-19 08:29:20 51°17.612 2°52.242 337.8 11.9 336 11.4
2008-12-19 08:29:25 51°17.628 2°52.231 336.7 11.8 335 11.5
2008-12-19 08:29:30 51°17.642 2°52.221 336 11.9 335 11.2
2008-12-19 08:29:34 51°17.655 2°52.212 335.7 12.1 336 11.5
2008-12-19 08:29:40 51°17.673 2°52.198 334.6 12 334 11.3
2008-12-19 08:29:45 51°17.688 2°52.187 335.6 12.1 335 11.2
2008-12-19 08:29:50 51°17.703 2°52.175 335.8 12.1 334 11.3
2008-12-19 08:29:55 51°17.718 2°52.164 336.3 12.1 335 11.6
2008-12-19 08:30:00 51°17.733 2°52.153 335.8 12.1 335 11.3
2008-12-19 08:30:05 51°17.749 2°52.142 336.3 12.1 336 11.4
2008-12-19 08:30:10 51°17.764 2°52.13 336.3 12.2 334 11.3
2008-12-19 08:30:15 51°17.779 2°52.119 336.3 12.2 335 11.3
2008-12-19 08:30:20 51°17.794 2°52.107 335.9 12.1 333 11.3
2008-12-19 08:30:25 51°17.81 2°52.095 335.6 12.1 334 11.4
2008-12-19 08:30:30 51°17.825 2°52.084 335.4 12.1 336 11.3
2008-12-19 08:30:35 51°17.84 2°52.073 335.7 12 336 11.4
2008-12-19 08:30:40 51°17.855 2°52.061 336 11.9 335 11.2
2008-12-19 08:30:45 51°17.87 2°52.05 335.6 11.9 335 10.9
2008-12-19 08:30:50 51°17.885 2°52.038 335.2 12 335 11.4
2008-12-19 08:30:55 51°17.899 2°52.026 334.5 11.9 333 11.2
2008-12-19 08:31:00 51°17.914 2°52.015 334.3 12 333 11.1
2008-12-19 08:31:05 51°17.929 2°52.002 333.7 11.9 333 11.4
2008-12-19 08:31:09 51°17.941 2°51.993 333.6 11.9 334 11.2
2008-12-19 08:31:15 51°17.959 2°51.979 335.1 12 333 11.3
2008-12-19 08:31:20 51°17.974 2°51.968 334.8 12 335 11.5
2008-12-19 08:31:25 51°17.989 2°51.956 335.3 12 334 11.4
2008-12-19 08:31:30 51°18.004 2°51.945 335.7 12 335 11.3
2008-12-19 08:31:34 51°18.016 2°51.936 336 12.1 334 11.6
2008-12-19 08:31:40 51°18.034 2°51.921 334.9 12.1 334 11.6
2008-12-19 08:31:45 51°18.049 2°51.91 334.9 12.1 335 11.5
2008-12-19 08:31:50 51°18.064 2°51.899 335.6 11.8 335 11.6
2008-12-19 08:31:54 51°18.076 2°51.89 336.1 11.9 336 11.8
2008-12-19 08:32:00 51°18.094 2°51.877 336.3 11.8 335 11.5
2008-12-19 08:32:05 51°18.109 2°51.866 336.3 11.8 334 11.8
2008-12-19 08:32:10 51°18.123 2°51.855 335.9 11.8 335 11.8
2008-12-19 08:32:15 51°18.138 2°51.844 335.8 11.9 336 11.9
2008-12-19 08:32:20 51°18.153 2°51.832 336.3 11.7 333 12.1
2008-12-19 08:32:25 51°18.168 2°51.821 335.4 11.8 336 11.6
2008-12-19 08:32:30 51°18.183 2°51.81 336.2 11.9 334 11.9
2008-12-19 08:32:35 51°18.198 2°51.799 336 11.9 334 12.2
2008-12-19 08:32:40 51°18.212 2°51.787 335.6 11.9 333 11.8
2008-12-19 08:32:45 51°18.227 2°51.775 335 11.7 333 12.4
2008-12-19 08:32:50 51°18.241 2°51.765 335.4 11.7 335 12.3
2008-12-19 08:32:54 51°18.253 2°51.755 335.7 11.8 332 12.4
2008-12-19 08:33:00 51°18.271 2°51.741 334.9 11.9 334 12.6
2008-12-19 08:33:05 51°18.285 2°51.729 335.4 11.8 332 12.8
2008-12-19 08:33:09 51°18.297 2°51.719 334.8 11.8 332 12.6
2008-12-19 08:33:15 51°18.314 2°51.704 334.6 11.9 332 12.8
2008-12-19 08:33:20 51°18.329 2°51.692 333.7 12 332 12.9
2008-12-19 08:33:25 51°18.344 2°51.679 333.8 12.1 332 12.8
2008-12-19 08:33:29 51°18.356 2°51.669 334.6 12.1 333 13
2008-12-19 08:33:35 51°18.374 2°51.656 335.5 12.1 335 13
2008-12-19 08:33:40 51°18.389 2°51.644 336.6 12.2 333 13.1
2008-12-19 08:33:45 51°18.404 2°51.632 335.8 12.2 335 13.2
2008-12-19 08:33:50 51°18.42 2°51.62 335.8 12.2 334 13.2
2008-12-19 08:33:55 51°18.435 2°51.608 335.8 12.3 333 13.4
2008-12-19 08:34:00 51°18.45 2°51.596 335.6 12.2 334 13.4
2008-12-19 08:34:05 51°18.465 2°51.585 335.2 12.2 335 13.7
2008-12-19 08:34:10 51°18.481 2°51.573 335.6 12.3 334 13.8
2008-12-19 08:34:14 51°18.492 2°51.563 334.5 12.3 333 13.8
2008-12-19 08:34:20 51°18.511 2°51.549 335 12.3 333 13.9
2008-12-19 08:34:25 51°18.526 2°51.537 335.2 12.3 334 13.9
2008-12-19 08:34:30 51°18.541 2°51.525 335.3 12.3 334 13.9
2008-12-19 08:34:35 51°18.557 2°51.513 335.4 12.3 335 14.3
2008-12-19 08:34:40 51°18.572 2°51.501 335.7 12.3 334 14.2
2008-12-19 08:34:45 51°18.587 2°51.489 335.6 12.3 333 14.2
2008-12-19 08:34:50 51°18.603 2°51.477 335.3 12.3 334 14.6
2008-12-19 08:34:55 51°18.618 2°51.465 335.4 12.2 333 14.4
2008-12-19 08:35:00 51°18.633 2°51.453 335.7 12.1 334 14.7
2008-12-19 08:35:05 51°18.648 2°51.441 335.9 12 334 14.7
2008-12-19 08:35:10 51°18.663 2°51.43 335.6 11.9 334 14.5
2008-12-19 08:35:15 51°18.678 2°51.419 336.2 11.8 336 14.9
2008-12-19 08:35:20 51°18.692 2°51.407 336.2 11.9 334 14.8
2008-12-19 08:35:25 51°18.707 2°51.396 335.3 11.9 333 15.1
2008-12-19 08:35:30 51°18.722 2°51.385 335.1 11.8 334 15
2008-12-19 08:35:35 51°18.736 2°51.373 335.2 11.8 334 14.9
2008-12-19 08:35:40 51°18.751 2°51.362 335.6 11.8 334 14.9
2008-12-19 08:35:45 51°18.766 2°51.35 335 11.8 333 15
2008-12-19 08:35:50 51°18.78 2°51.339 334.9 11.7 334 15.3
2008-12-19 08:35:55 51°18.795 2°51.328 335.3 11.8 334 15.1
2008-12-19 08:36:00 51°18.81 2°51.316 335.3 11.7 334 15.7
2008-12-19 08:36:05 51°18.824 2°51.306 334.9 11.5 336 15.4
2008-12-19 08:36:10 51°18.838 2°51.294 335.6 11.6 332 15.2
2008-12-19 08:36:14 51°18.85 2°51.285 335.2 11.7 334 15.6
2008-12-19 08:36:20 51°18.867 2°51.271 335.3 11.6 333 15.2
2008-12-19 08:36:25 51°18.882 2°51.26 335.5 11.7 335 15.2
2008-12-19 08:36:30 51°18.897 2°51.249 335.9 11.7 334 15.3
2008-12-19 08:36:35 51°18.912 2°51.238 335.5 11.6 336 15.9
2008-12-19 08:36:40 51°18.926 2°51.228 336 11.4 336 15.5
2008-12-19 08:36:45 51°18.94 2°51.217 336.5 11.5 333 15.7
2008-12-19 08:36:50 51°18.954 2°51.205 335.2 11.5 334 15.5
2008-12-19 08:36:55 51°18.969 2°51.194 335.2 11.6 333 15.9
2008-12-19 08:37:00 51°18.983 2°51.182 335 11.6 334 15.8
2008-12-19 08:37:05 51°18.998 2°51.171 335.1 11.7 333 15.8
2008-12-19 08:37:10 51°19.012 2°51.159 334.8 11.7 334 15.8
2008-12-19 08:37:15 51°19.027 2°51.147 334.7 11.7 333 15.8
2008-12-19 08:37:20 51°19.041 2°51.136 334.8 11.7 335 15.7
2008-12-19 08:37:25 51°19.056 2°51.125 335.3 11.7 334 15.6
2008-12-19 08:37:30 51°19.071 2°51.114 335.1 11.7 334 15.8
2008-12-19 08:37:35 51°19.085 2°51.102 335.5 11.7 334 16
2008-12-19 08:37:40 51°19.1 2°51.09 335.4 11.7 333 15.6
2008-12-19 08:37:45 51°19.114 2°51.079 335 11.7 333 15.5
2008-12-19 08:37:50 51°19.129 2°51.067 334.8 11.9 334 15.8
2008-12-19 08:37:55 51°19.144 2°51.055 335 11.9 333 15.7
2008-12-19 08:38:00 51°19.158 2°51.044 335.3 11.9 334 16
2008-12-19 08:38:05 51°19.173 2°51.032 336.1 12 335 15.9
2008-12-19 08:38:10 51°19.188 2°51.021 335.8 11.8 334 15.7
2008-12-19 08:38:15 51°19.203 2°51.01 336.1 11.8 335 15.5
2008-12-19 08:38:20 51°19.218 2°50.999 336.7 11.7 336 15.8
2008-12-19 08:38:25 51°19.233 2°50.987 336.6 11.8 333 15.5
2008-12-19 08:38:30 51°19.247 2°50.975 335.2 11.8 333 15.5
2008-12-19 08:38:34 51°19.259 2°50.967 335.5 11.7 335 15.4
2008-12-19 08:38:40 51°19.277 2°50.953 335.9 11.8 335 15.7
2008-12-19 08:38:45 51°19.291 2°50.942 336.3 11.8 333 15.6
2008-12-19 08:38:50 51°19.306 2°50.93 335.6 11.9 334 15.7
2008-12-19 08:38:55 51°19.321 2°50.918 335.3 11.8 332 15.6
2008-12-19 08:39:00 51°19.335 2°50.907 335.3 11.9 335 15.4
2008-12-19 08:39:05 51°19.35 2°50.894 334.8 11.9 334 15.2
2008-12-19 08:39:10 51°19.365 2°50.883 335.8 11.9 334 15.4
2008-12-19 08:39:15 51°19.379 2°50.871 334.7 11.7 333 15.2
2008-12-19 08:39:20 51°19.394 2°50.861 335.5 11.7 335 15.1
2008-12-19 08:39:25 51°19.408 2°50.847 334.1 11.6 332 15.1
2008-12-19 08:39:30 51°19.423 2°50.836 334.5 11.7 333 15
2008-12-19 08:39:35 51°19.437 2°50.824 334.9 11.8 333 14.6
2008-12-19 08:39:40 51°19.452 2°50.812 335.4 11.8 333 14.6
2008-12-19 08:39:45 51°19.466 2°50.801 335.4 11.8 334 14.1
2008-12-19 08:39:50 51°19.481 2°50.789 335.5 11.8 333 13.8
2008-12-19 08:39:55 51°19.496 2°50.778 336.3 11.9 335 13.6
2008-12-19 08:40:00 51°19.51 2°50.765 335.6 11.8 331 13.6
2008-12-19 08:40:05 51°19.525 2°50.754 335.2 11.9 334 13.4
2008-12-19 08:40:09 51°19.537 2°50.744 335.3 11.9 332 13.3
2008-12-19 08:40:15 51°19.554 2°50.729 334.4 11.9 333 13.2
2008-12-19 08:40:20 51°19.569 2°50.717 335.3 12 330 13.2
2008-12-19 08:40:25 51°19.584 2°50.704 334.6 12 333 13.3
2008-12-19 08:40:30 51°19.598 2°50.692 335 12 331 13
2008-12-19 08:40:35 51°19.613 2°50.679 334.5 12.1 333 13.3
2008-12-19 08:40:40 51°19.628 2°50.667 334.6 12 333 12.5
2008-12-19 08:40:45 51°19.642 2°50.655 335.5 11.9 333 12.8
2008-12-19 08:40:50 51°19.657 2°50.643 334.9 11.9 332 12.5
2008-12-19 08:40:54 51°19.668 2°50.632 334.2 11.9 331 12.3
2008-12-19 08:41:00 51°19.686 2°50.618 334.1 12 332 12.5
2008-12-19 08:41:05 51°19.701 2°50.605 334.3 11.9 331 12.6
2008-12-19 08:41:10 51°19.715 2°50.593 334.3 11.8 333 12.5
2008-12-19 08:41:15 51°19.73 2°50.581 335 11.9 333 12.9
2008-12-19 08:41:20 51°19.745 2°50.57 336.3 11.8 335 13
2008-12-19 08:41:25 51°19.76 2°50.558 336.8 11.9 334 13.2
2008-12-19 08:41:30 51°19.775 2°50.548 337.9 12 337 13.4
2008-12-19 08:41:35 51°19.79 2°50.537 338.6 11.9 336 13.3
2008-12-19 08:41:40 51°19.806 2°50.528 339.9 11.9 339 13.7
2008-12-19 08:41:45 51°19.821 2°50.518 340.7 12 338 13.7
2008-12-19 08:41:50 51°19.836 2°50.508 341.3 12 339 13.7
2008-12-19 08:41:55 51°19.852 2°50.499 341.4 12.1 340 14.2
2008-12-19 08:42:00 51°19.868 2°50.49 342.2 12 339 14.3
2008-12-19 08:42:05 51°19.884 2°50.48 341.4 12 339 14.6
2008-12-19 08:42:10 51°19.899 2°50.472 342.4 12.1 341 14.4
2008-12-19 08:42:15 51°19.915 2°50.462 342.5 12.1 340 15
2008-12-19 08:42:20 51°19.931 2°50.453 342.2 12 339 15.1
2008-12-19 08:42:25 51°19.947 2°50.444 341.7 12.1 340 15.3
2008-12-19 08:42:30 51°19.962 2°50.435 342.5 12.1 340 15.3
2008-12-19 08:42:35 51°19.978 2°50.426 342.5 12.1 341 15.6
2008-12-19 08:42:40 51°19.994 2°50.416 341.9 12.1 339 15.9
2008-12-19 08:42:45 51°20.01 2°50.407 342.2 12.1 340 16.1
2008-12-19 08:42:50 51°20.025 2°50.397 341.9 12.1 339 16
2008-12-19 08:42:55 51°20.041 2°50.389 341.7 11.9 340 16.1
2008-12-19 08:43:00 51°20.057 2°50.38 342.1 11.9 340 16.6
2008-12-19 08:43:05 51°20.072 2°50.371 342.6 11.8 339 16.5
2008-12-19 08:43:10 51°20.087 2°50.363 341.2 11.8 342 16.3
2008-12-19 08:43:15 51°20.103 2°50.354 342.4 11.6 341 16.4
2008-12-19 08:43:20 51°20.118 2°50.346 342.1 11.7 341 16.4
2008-12-19 08:43:25 51°20.133 2°50.337 342.1 11.8 340 16.6
2008-12-19 08:43:30 51°20.149 2°50.328 341.7 11.9 339 16.7
2008-12-19 08:43:34 51°20.161 2°50.32 341.4 12 339 16.9
2008-12-19 08:43:40 51°20.18 2°50.309 341.2 12 339 17.1
2008-12-19 08:43:45 51°20.196 2°50.3 341.7 11.8 340 17.1
2008-12-19 08:43:49 51°20.208 2°50.293 341.7 11.9 339 16.9
2008-12-19 08:43:54 51°20.223 2°50.283 341.5 12 340 17.1
2008-12-19 08:44:00 51°20.242 2°50.272 341.4 12 338 17.2
2008-12-19 08:44:05 51°20.258 2°50.262 340.8 11.8 340 17.8
2008-12-19 08:44:09 51°20.27 2°50.255 341 11.8 339 17.7
2008-12-19 08:44:14 51°20.285 2°50.246 340.7 12 341 18.4
2008-12-19 08:44:20 51°20.304 2°50.236 341.9 11.9 341 18.5
2008-12-19 08:44:25 51°20.32 2°50.227 341.6 12 339 18.6
2008-12-19 08:44:29 51°20.332 2°50.22 341 12 342 19.1
2008-12-19 08:44:34 51°20.348 2°50.211 341.5 12.1 338 19.3
2008-12-19 08:44:40 51°20.367 2°50.2 341.2 12.1 341 19.6
2008-12-19 08:44:45 51°20.382 2°50.19 341.1 12 339 19.4
2008-12-19 08:44:49 51°20.395 2°50.183 341.3 12 340 19.7
2008-12-19 08:44:54 51°20.411 2°50.173 341.4 12.1 340 19.5
2008-12-19 08:45:00 51°20.429 2°50.163 341.4 11.9 341 20.3
2008-12-19 08:45:05 51°20.445 2°50.154 342.1 12.1 340 20.4
2008-12-19 08:45:09 51°20.457 2°50.147 341.1 11.9 340 20.7
2008-12-19 08:45:14 51°20.473 2°50.139 341.7 12 340 21.1
2008-12-19 08:45:20 51°20.491 2°50.127 341.4 12 339 21.2
2008-12-19 08:45:25 51°20.507 2°50.118 340.8 12 339 21.6
2008-12-19 08:45:29 51°20.52 2°50.11 340.7 12 339 21.6
2008-12-19 08:45:34 51°20.535 2°50.101 340.9 12.1 340 21.7
2008-12-19 08:45:40 51°20.554 2°50.09 341.4 12.1 340 22
2008-12-19 08:45:45 51°20.57 2°50.081 341.5 12.2 340 22.1
2008-12-19 08:45:49 51°20.583 2°50.074 341.2 12.1 340 22.4
2008-12-19 08:45:54 51°20.599 2°50.065 341.3 12.1 340 22.7
2008-12-19 08:46:00 51°20.618 2°50.054 341.4 12 341 22.9
2008-12-19 08:46:05 51°20.634 2°50.045 341.5 12 339 23
2008-12-19 08:46:09 51°20.646 2°50.037 341.4 12.2 341 23.2
2008-12-19 08:46:14 51°20.662 2°50.029 341.5 12 340 23.1
2008-12-19 08:46:20 51°20.681 2°50.019 341.6 12.1 343 23.3
2008-12-19 08:46:25 51°20.697 2°50.01 342.1 12 344 23.2
2008-12-19 08:46:29 51°20.71 2°50.007 345.8 12 350 23.4
2008-12-19 08:46:34 51°20.726 2°50 347.8 12 345 23.6
2008-12-19 08:46:40 51°20.746 2°49.996 349.4 12.1 353 23.6
2008-12-19 08:46:45 51°20.763 2°49.991 351.2 12.1 352 23.4
2008-12-19 08:46:49 51°20.776 2°49.991 354.9 12 359 23.8
2008-12-19 08:46:54 51°20.792 2°49.989 357.3 11.9 359 23.7
2008-12-19 08:47:00 51°20.812 2°49.99 0.5 12 -999 23.9
2008-12-19 08:47:05 51°20.829 2°49.992 1.9 12 6 23.9
2008-12-19 08:47:09 51°20.842 2°49.993 4 12 2 24.1
2008-12-19 08:47:14 51°20.859 2°49.995 4.4 12 7 24
2008-12-19 08:47:20 51°20.879 2°49.999 6.7 12.1 7 24.2
2008-12-19 08:47:25 51°20.895 2°50.002 6.7 12 11 24.1
2008-12-19 08:47:29 51°20.908 2°50.007 10.2 12 10 23.8
2008-12-19 08:47:34 51°20.924 2°50.012 11.3 11.8 13 24.3
2008-12-19 08:47:40 51°20.943 2°50.019 13.5 11.9 14 23.8
2008-12-19 08:47:45 51°20.96 2°50.025 14.5 12 12 24
2008-12-19 08:47:49 51°20.973 2°50.031 14.5 12.1 15 24.1
2008-12-19 08:47:54 51°20.989 2°50.037 15.3 12.1 14 24.2
2008-12-19 08:48:00 51°21.008 2°50.046 15.9 12.2 16 23.8
2008-12-19 08:48:05 51°21.025 2°50.053 16.6 12.3 15 24
2008-12-19 08:48:09 51°21.038 2°50.059 16.2 12.2 15 24.1
2008-12-19 08:48:14 51°21.054 2°50.065 16.1 12.1 17 24.1
2008-12-19 08:48:20 51°21.074 2°50.073 17 12.2 12 24.1
2008-12-19 08:48:25 51°21.09 2°50.082 15.7 12.2 17 24
2008-12-19 08:48:29 51°21.103 2°50.085 15.3 12.2 11 24.2
2008-12-19 08:48:34 51°21.12 2°50.092 15.2 12.3 15 24
2008-12-19 08:48:40 51°21.14 2°50.101 15.9 12.4 13 24.3
2008-12-19 08:48:45 51°21.156 2°50.107 15.2 12.2 15 24
2008-12-19 08:48:50 51°21.173 2°50.114 15.8 12.2 15 23.9
2008-12-19 08:48:55 51°21.189 2°50.121 16.7 12.2 15 23.7
2008-12-19 08:49:00 51°21.205 2°50.129 15.8 12.1 14 24
2008-12-19 08:49:05 51°21.222 2°50.135 15.2 12.1 15 23.8
2008-12-19 08:49:10 51°21.238 2°50.14 15.8 12.1 12 23.7
2008-12-19 08:49:15 51°21.254 2°50.147 15.1 12.1 15 23.7
2008-12-19 08:49:20 51°21.271 2°50.154 15.9 12.3 13 23.7
2008-12-19 08:49:25 51°21.287 2°50.16 15.2 12.2 15 24.1
2008-12-19 08:49:30 51°21.304 2°50.167 15.5 12.2 14 23.8
2008-12-19 08:49:35 51°21.32 2°50.173 15.2 12.2 11 23.9
2008-12-19 08:49:40 51°21.337 2°50.18 14.6 12.4 18 23.7
2008-12-19 08:49:45 51°21.353 2°50.184 15.5 12.2 6 23.9
2008-12-19 08:49:50 51°21.37 2°50.193 13.3 12.2 19 23.8
2008-12-19 08:49:55 51°21.386 2°50.197 15.7 12 10 23.7
2008-12-19 08:50:00 51°21.402 2°50.204 14.7 12.2 17 23.5
2008-12-19 08:50:05 51°21.419 2°50.208 14.1 12 8 46
2008-12-19 08:50:10 51°21.435 2°50.215 12.6 12.1 14 45.7
2008-12-19 08:50:14 51°21.448 2°50.216 10.6 12 5 47.7
2008-12-19 08:50:20 51°21.468 2°50.222 10.2 12.1 8 46.8
2008-12-19 08:50:25 51°21.484 2°50.224 9.2 12.1 7 47.1
2008-12-19 08:50:29 51°21.498 2°50.226 8.4 12.1 7 45.5
2008-12-19 08:50:34 51°21.515 2°50.229 8.8 12.2 6 45.4
2008-12-19 08:50:40 51°21.535 2°50.232 7.5 12.3 6 47.9
2008-12-19 08:50:45 51°21.552 2°50.235 7.1 12.2 6 47.4
2008-12-19 08:50:49 51°21.565 2°50.236 7.5 12.2 4 47.1
2008-12-19 08:50:54 51°21.582 2°50.24 7.4 12.1 5 46.7
2008-12-19 08:51:00 51°21.602 2°50.242 6.8 12.1 5 46.5
2008-12-19 08:51:05 51°21.619 2°50.244 6.4 12.2 5 48.9
2008-12-19 08:51:09 51°21.633 2°50.245 6.3 12.2 5 44.6
2008-12-19 08:51:14 51°21.649 2°50.249 7.8 12.1 3 47.3
2008-12-19 08:51:20 51°21.669 2°50.25 6.1 12 5 45.1
2008-12-19 08:51:25 51°21.686 2°50.253 6.6 12.1 5 46.3
2008-12-19 08:51:29 51°21.699 2°50.254 7 12.1 4 45.4
2008-12-19 08:51:35 51°21.719 2°50.257 6 12 4 46.8
2008-12-19 08:51:40 51°21.736 2°50.259 5.7 12.1 3 46.5
2008-12-19 08:51:45 51°21.753 2°50.26 5.1 12 3 45.1
2008-12-19 08:51:50 51°21.769 2°50.262 5.1 11.9 4 47.7
2008-12-19 08:51:55 51°21.786 2°50.262 4.3 12 -999 47.4
2008-12-19 08:52:00 51°21.802 2°50.263 3.8 12.1 2 45.5
2008-12-19 08:52:05 51°21.819 2°50.264 3.1 12 1 46.2
2008-12-19 08:52:10 51°21.836 2°50.265 3.2 12 1 23.6
2008-12-19 08:52:15 51°21.852 2°50.265 2.4 12 3 23.2
2008-12-19 08:52:20 51°21.869 2°50.264 2.6 12 358 23.4
2008-12-19 08:52:25 51°21.886 2°50.265 2.4 12.2 -999 23.5
2008-12-19 08:52:30 51°21.903 2°50.265 1.7 12 -999 23.4
2008-12-19 08:52:34 51°21.916 2°50.266 2.3 12.1 2 23.8
2008-12-19 08:52:40 51°21.936 2°50.266 1.8 11.9 1 23.4
2008-12-19 08:52:45 51°21.953 2°50.266 2.4 12.1 359 23.5
2008-12-19 08:52:50 51°21.969 2°50.266 1.9 12.1 2 23.5
2008-12-19 08:52:54 51°21.983 2°50.266 1.8 12.1 -999 23.9
2008-12-19 08:53:00 51°22.003 2°50.267 1.7 11.9 2 23.2
2008-12-19 08:53:05 51°22.019 2°50.266 1.7 12.1 358 23.6
2008-12-19 08:53:10 51°22.036 2°50.266 1.5 12.1 1 23.6
2008-12-19 08:53:15 51°22.053 2°50.266 1 12.2 -999 23.8
2008-12-19 08:53:20 51°22.07 2°50.265 1.2 12.2 358 23.9
2008-12-19 08:53:25 51°22.086 2°50.265 1.8 12.2 -999 23.7
2008-12-19 08:53:30 51°22.104 2°50.264 1.7 12.3 359 24
2008-12-19 08:53:35 51°22.121 2°50.264 1.7 12.3 -999 24
2008-12-19 08:53:40 51°22.137 2°50.264 1.7 12.2 359 23.9
2008-12-19 08:53:45 51°22.154 2°50.264 1.9 12.2 1 24.2
2008-12-19 08:53:49 51°22.168 2°50.264 2.6 12.3 -999 23.9
2008-12-19 08:53:55 51°22.189 2°50.263 1.7 12.3 358 24.1
2008-12-19 08:54:00 51°22.206 2°50.263 2.5 12.3 -999 24.2
2008-12-19 08:54:05 51°22.223 2°50.263 1.7 12.3 358 24
2008-12-19 08:54:10 51°22.24 2°50.263 1 12.3 2 24
2008-12-19 08:54:15 51°22.257 2°50.262 2.4 12.3 357 23.5
2008-12-19 08:54:20 51°22.274 2°50.263 2.4 12.3 1 23.7
2008-12-19 08:54:25 51°22.291 2°50.262 1.7 12.2 359 23.6
2008-12-19 08:54:30 51°22.308 2°50.262 2 12.1 -999 23.8
2008-12-19 08:54:34 51°22.321 2°50.263 2.4 12.2 -999 23.9
2008-12-19 08:54:40 51°22.341 2°50.264 1.7 12.1 1 23.9
2008-12-19 08:54:45 51°22.358 2°50.263 2.1 12.3 -999 23.7
2008-12-19 08:54:50 51°22.376 2°50.264 1.7 12.3 -999 23.9
2008-12-19 08:54:54 51°22.389 2°50.264 1.9 12.2 2 23.6
2008-12-19 08:55:00 51°22.41 2°50.264 3.3 12.3 359 23.8
2008-12-19 08:55:05 51°22.427 2°50.266 2.3 12.4 3 23.6
2008-12-19 08:55:10 51°22.444 2°50.266 3.3 12.4 1 23.8
2008-12-19 08:55:15 51°22.461 2°50.267 2.7 12.3 2 23.6
2008-12-19 08:55:20 51°22.478 2°50.267 2.7 12.3 359 23.4
2008-12-19 08:55:25 51°22.495 2°50.268 2.5 12.3 4 23.5
2008-12-19 08:55:30 51°22.512 2°50.268 2.6 12.3 358 23.2
2008-12-19 08:55:35 51°22.529 2°50.268 1.6 12.2 1 23.3
2008-12-19 08:55:40 51°22.546 2°50.269 2.7 12.3 1 23.7
2008-12-19 08:55:45 51°22.563 2°50.27 2.1 12.3 2 23.3
2008-12-19 08:55:50 51°22.58 2°50.271 2.4 12.3 2 23.7
2008-12-19 08:55:55 51°22.597 2°50.271 3.2 12.3 1 23.3
2008-12-19 08:56:00 51°22.614 2°50.27 2 12.3 358 23.2
2008-12-19 08:56:05 51°22.631 2°50.27 1.7 12.3 359 22.8
2008-12-19 08:56:10 51°22.648 2°50.269 1.4 12.2 359 22.3
2008-12-19 08:56:15 51°22.665 2°50.269 2.4 12.4 359 22.2
2008-12-19 08:56:20 51°22.682 2°50.27 1.6 12.2 1 21.3
2008-12-19 08:56:25 51°22.699 2°50.271 2.4 12.3 3 20.5
2008-12-19 08:56:30 51°22.716 2°50.271 3 12.3 -999 20.7
2008-12-19 08:56:35 51°22.733 2°50.272 2.6 12.2 1 22.2
2008-12-19 08:56:40 51°22.75 2°50.272 1.9 12 2 21.6
2008-12-19 08:56:45 51°22.766 2°50.273 3.1 12.1 -999 20.9
2008-12-19 08:56:50 51°22.783 2°50.274 2.6 12.2 1 19.8
2008-12-19 08:56:54 51°22.797 2°50.273 1.9 12.2 -999 19.1
2008-12-19 08:57:00 51°22.817 2°50.274 2.2 12.3 -999 18.6
2008-12-19 08:57:05 51°22.834 2°50.273 1.7 12.1 2 18
2008-12-19 08:57:10 51°22.851 2°50.274 2.3 12.1 -999 15.5
2008-12-19 08:57:14 51°22.864 2°50.274 2.7 12.2 -999 15.2
2008-12-19 08:57:20 51°22.884 2°50.274 1.7 12.1 -999 16.8
2008-12-19 08:57:25 51°22.901 2°50.273 2.2 12.2 359 17.7
2008-12-19 08:57:30 51°22.918 2°50.273 1.7 12.2 -999 16.4
2008-12-19 08:57:35 51°22.935 2°50.274 2.5 12.3 2 13.8
2008-12-19 08:57:40 51°22.952 2°50.273 2.3 12.3 358 15.9
2008-12-19 08:57:45 51°22.969 2°50.274 2.6 12.3 1 16.6
2008-12-19 08:57:50 51°22.986 2°50.274 2.3 12.3 -999 16.4
2008-12-19 08:57:55 51°23.004 2°50.274 3 12.5 359 14.7
2008-12-19 08:58:00 51°23.021 2°50.274 1.9 12.3 1 15.6
2008-12-19 08:58:05 51°23.038 2°50.275 3 12.4 -999 16.8
2008-12-19 08:58:10 51°23.055 2°50.275 2.7 12.3 1 17.2
2008-12-19 08:58:15 51°23.072 2°50.275 2.9 12.4 359 17.2
2008-12-19 08:58:20 51°23.089 2°50.275 3 12.2 -999 16.4
2008-12-19 08:58:25 51°23.106 2°50.276 2.1 11.9 3 14.9
2008-12-19 08:58:30 51°23.122 2°50.277 3.2 11.9 3 16.6
2008-12-19 08:58:35 51°23.139 2°50.277 2.9 11.9 359 16.3
2008-12-19 08:58:40 51°23.156 2°50.277 2.2 12.1 2 14.7
2008-12-19 08:58:45 51°23.172 2°50.278 3.2 11.9 359 16.6
2008-12-19 08:58:50 51°23.189 2°50.278 1.5 11.8 2 16.2
2008-12-19 08:58:55 51°23.205 2°50.279 3.4 11.9 1 17.4
2008-12-19 08:59:00 51°23.222 2°50.281 3 11.9 2 17.5
2008-12-19 08:59:05 51°23.238 2°50.279 2.1 12 358 15.8
2008-12-19 08:59:10 51°23.255 2°50.28 2 12 3 16.9
2008-12-19 08:59:14 51°23.268 2°50.28 1.8 11.8 -999 17.5
2008-12-19 08:59:20 51°23.288 2°50.282 2.6 11.9 2 18.4
2008-12-19 08:59:25 51°23.304 2°50.281 1.8 11.8 2 17.6
2008-12-19 08:59:30 51°23.321 2°50.283 3.2 11.9 3 17.6
2008-12-19 08:59:34 51°23.334 2°50.283 3 11.9 359 16.6
2008-12-19 08:59:40 51°23.354 2°50.283 1.6 12 -999 18.2
2008-12-19 08:59:45 51°23.37 2°50.283 1.8 12 2 18.6
2008-12-19 08:59:50 51°23.387 2°50.283 2.6 12.1 358 19
2008-12-19 08:59:55 51°23.404 2°50.284 1.7 11.9 3 18.5
2008-12-19 09:00:00 51°23.42 2°50.284 2.4 12 359 18.1
2008-12-19 09:00:05 51°23.437 2°50.285 1.9 11.9 3 18.3
2008-12-19 09:00:10 51°23.454 2°50.284 1.7 11.9 358 17.5
2008-12-19 09:00:15 51°23.47 2°50.285 3 12.1 2 19.3
2008-12-19 09:00:20 51°23.487 2°50.284 1 12.1 359 18.2
2008-12-19 09:00:25 51°23.504 2°50.285 1.8 12 1 19.1
2008-12-19 09:00:29 51°23.517 2°50.284 2 12 -999 19.8
2008-12-19 09:00:35 51°23.538 2°50.285 2.4 12.2 -999 20.8
2008-12-19 09:00:40 51°23.554 2°50.287 1.4 12 3 20.4
2008-12-19 09:00:45 51°23.571 2°50.287 3.2 11.8 359 19.4
2008-12-19 09:00:50 51°23.587 2°50.286 0.7 11.7 1 19.5
2008-12-19 09:00:55 51°23.603 2°50.288 3.4 12 1 19.8
2008-12-19 09:01:00 51°23.62 2°50.287 2.1 12 -999 20.2
2008-12-19 09:01:05 51°23.637 2°50.288 1.6 12.1 1 20.8
2008-12-19 09:01:10 51°23.653 2°50.288 1.7 11.9 1 21.4
2008-12-19 09:01:15 51°23.67 2°50.289 2.7 12.1 1 21.5
2008-12-19 09:01:20 51°23.687 2°50.288 1.7 12.3 -999 21.8
2008-12-19 09:01:25 51°23.704 2°50.289 2.1 12 3 22.3
2008-12-19 09:01:30 51°23.72 2°50.288 2.2 11.9 358 22.3
2008-12-19 09:01:34 51°23.733 2°50.29 2.2 12 2 22.3
2008-12-19 09:01:40 51°23.753 2°50.288 1.4 12 357 22.5
2008-12-19 09:01:45 51°23.77 2°50.29 2 12.1 2 22.6
2008-12-19 09:01:50 51°23.787 2°50.288 2.1 12.2 356 22.4
2008-12-19 09:01:54 51°23.8 2°50.289 1.3 11.8 3 22.5
2008-12-19 09:02:00 51°23.82 2°50.289 2.7 11.9 -999 22.5
2008-12-19 09:02:05 51°23.836 2°50.29 2.2 12 2 22.6
2008-12-19 09:02:10 51°23.853 2°50.289 2.3 12 358 22.9
2008-12-19 09:02:15 51°23.869 2°50.289 1.7 11.9 -999 22.6
2008-12-19 09:02:20 51°23.886 2°50.29 2.6 12 -999 22.8
2008-12-19 09:02:25 51°23.903 2°50.289 2.2 12.1 -999 22.6
2008-12-19 09:02:30 51°23.919 2°50.289 2.1 12.1 -999 22.4
2008-12-19 09:02:35 51°23.936 2°50.289 2.6 12.2 357 22.7
2008-12-19 09:02:40 51°23.953 2°50.289 1.6 12.2 2 23
2008-12-19 09:02:45 51°23.97 2°50.289 1.4 12.2 2 22.9
2008-12-19 09:02:49 51°23.984 2°50.288 2.7 12.1 359 23.1
2008-12-19 09:02:55 51°24.004 2°50.289 2.8 12.2 -999 23
2008-12-19 09:03:00 51°24.021 2°50.289 1.3 12.2 5 22.7
2008-12-19 09:03:05 51°24.038 2°50.288 2.8 12.2 359 22.7
2008-12-19 09:03:10 51°24.055 2°50.29 2.4 12.3 2 23
2008-12-19 09:03:15 51°24.071 2°50.289 1.3 11.9 -999 22.9
2008-12-19 09:03:20 51°24.087 2°50.291 3.4 11.8 1 22.3
2008-12-19 09:03:25 51°24.104 2°50.289 2.3 11.8 358 22.5
2008-12-19 09:03:30 51°24.12 2°50.292 2.4 11.9 5 22.4
2008-12-19 09:03:34 51°24.133 2°50.291 3 11.8 -999 23.2
2008-12-19 09:03:40 51°24.152 2°50.294 2.6 11.6 4 22.4
2008-12-19 09:03:45 51°24.168 2°50.292 3.7 11.6 359 22.4
2008-12-19 09:03:50 51°24.185 2°50.293 2.8 11.7 2 22.5
2008-12-19 09:03:55 51°24.201 2°50.292 2.8 12 357 22.6
2008-12-19 09:04:00 51°24.218 2°50.293 2.3 12 2 22.8
2008-12-19 09:04:05 51°24.234 2°50.292 2 12 359 22.6
2008-12-19 09:04:09 51°24.248 2°50.293 2.4 11.9 1 22.8
2008-12-19 09:04:14 51°24.264 2°50.292 1.5 11.8 -999 22.9
2008-12-19 09:04:20 51°24.284 2°50.294 3.2 12 1 23.1
2008-12-19 09:04:25 51°24.301 2°50.292 1.9 12.1 358 23.2
2008-12-19 09:04:29 51°24.314 2°50.293 1.7 12.1 2 23.5
2008-12-19 09:04:35 51°24.334 2°50.292 1.9 12.2 358 23.2
2008-12-19 09:04:40 51°24.351 2°50.292 2 12.3 359 23.5
2008-12-19 09:04:45 51°24.368 2°50.293 2.4 12.2 359 23.6
2008-12-19 09:04:50 51°24.385 2°50.292 2 12.1 1 23.4
2008-12-19 09:04:55 51°24.402 2°50.292 2.4 12.3 359 23.7
2008-12-19 09:05:00 51°24.418 2°50.293 2.3 12 1 23.5
2008-12-19 09:05:05 51°24.435 2°50.293 2.4 12 4 23.1
2008-12-19 09:05:09 51°24.448 2°50.293 3.2 11.9 357 23.3
2008-12-19 09:05:15 51°24.468 2°50.293 1.4 11.8 2 22.9
2008-12-19 09:05:20 51°24.484 2°50.294 2.4 12 -999 23.3
2008-12-19 09:05:25 51°24.501 2°50.293 2.6 11.9 1 23.3
2008-12-19 09:05:30 51°24.518 2°50.293 2.5 12 359 23.1
2008-12-19 09:05:34 51°24.531 2°50.295 2.7 11.9 3 23.5
2008-12-19 09:05:40 51°24.551 2°50.294 2.2 12 1 23.2
2008-12-19 09:05:45 51°24.567 2°50.294 3 12 357 23.3
2008-12-19 09:05:50 51°24.584 2°50.294 1.5 12 1 23.5
2008-12-19 09:05:54 51°24.597 2°50.293 1.3 11.9 359 23.1
2008-12-19 09:06:00 51°24.617 2°50.294 2.9 11.9 359 23.4
2008-12-19 09:06:05 51°24.634 2°50.294 1.7 11.9 3 23.4
2008-12-19 09:06:10 51°24.65 2°50.294 2.4 12 358 23.3
2008-12-19 09:06:14 51°24.663 2°50.294 1.4 11.9 1 23.8
2008-12-19 09:06:20 51°24.683 2°50.294 1.5 11.9 -999 23.2
2008-12-19 09:06:25 51°24.7 2°50.294 2.4 11.9 1 23.3
2008-12-19 09:06:30 51°24.716 2°50.293 2.4 12.1 358 23.3
2008-12-19 09:06:35 51°24.733 2°50.294 2 11.9 2 23.3
2008-12-19 09:06:40 51°24.75 2°50.293 2.7 12.1 359 23.3
2008-12-19 09:06:45 51°24.767 2°50.294 2.8 12.2 -999 23.3
2008-12-19 09:06:50 51°24.784 2°50.293 1.9 12.1 -999 23.5
2008-12-19 09:06:55 51°24.8 2°50.293 2.1 12.1 359 23.4
2008-12-19 09:07:00 51°24.817 2°50.294 1.7 12.1 1 23.7
2008-12-19 09:07:05 51°24.834 2°50.294 2 12 359 23.4
2008-12-19 09:07:10 51°24.85 2°50.292 1.7 11.9 357 23.2
2008-12-19 09:07:15 51°24.867 2°50.293 2 12.1 1 23.3
2008-12-19 09:07:20 51°24.883 2°50.293 2.1 11.6 2 23.4
2008-12-19 09:07:25 51°24.899 2°50.293 3.4 11.5 359 22.9
2008-12-19 09:07:30 51°24.915 2°50.294 2.4 11.4 2 23.3
2008-12-19 09:07:35 51°24.931 2°50.294 3.3 11.4 359 23.4
2008-12-19 09:07:40 51°24.947 2°50.294 2.7 11.7 1 23.6
2008-12-19 09:07:45 51°24.963 2°50.294 2.4 11.9 -999 23.5
2008-12-19 09:07:50 51°24.98 2°50.295 3.4 12 2 23.5
2008-12-19 09:07:55 51°24.996 2°50.295 2.6 11.9 -999 23.6
2008-12-19 09:08:00 51°25.013 2°50.295 3.3 12.1 358 23.5
2008-12-19 09:08:05 51°25.03 2°50.294 1.4 12.1 2 23.5
2008-12-19 09:08:10 51°25.047 2°50.294 2.8 12.3 358 23.7
2008-12-19 09:08:14 51°25.061 2°50.294 1.7 12.3 359 23.8
2008-12-19 09:08:20 51°25.081 2°50.294 1.8 12.4 2 23.6
2008-12-19 09:08:25 51°25.098 2°50.291 1.9 12.2 356 23.9
2008-12-19 09:08:30 51°25.115 2°50.295 3.2 12.4 5 23.8
2008-12-19 09:08:34 51°25.129 2°50.293 2 11.8 357 54.2
2008-12-19 09:08:40 51°25.148 2°50.294 2.8 11.8 3 46.2
2008-12-19 09:08:45 51°25.165 2°50.293 2.7 11.8 358 47
2008-12-19 09:08:50 51°25.181 2°50.293 1.7 11.9 -999 46.4
2008-12-19 09:08:55 51°25.198 2°50.293 2.8 12.1 358 45.5
2008-12-19 09:09:00 51°25.215 2°50.294 1.7 12.1 2 49.9
2008-12-19 09:09:05 51°25.232 2°50.291 1.1 12.1 -999 48.4
2008-12-19 09:09:10 51°25.248 2°50.292 2.5 12.2 359 50.1
2008-12-19 09:09:15 51°25.266 2°50.292 1.7 12.3 1 46.9
2008-12-19 09:09:20 51°25.282 2°50.291 1.8 12.1 358 47.7
2008-12-19 09:09:25 51°25.299 2°50.291 2.5 12.3 359 45.7
2008-12-19 09:09:30 51°25.317 2°50.289 1.4 12.3 358 49.6
2008-12-19 09:09:35 51°25.334 2°50.29 1.9 12.4 1 45.6
2008-12-19 09:09:40 51°25.351 2°50.289 2.3 12.5 358 50.2
2008-12-19 09:09:45 51°25.368 2°50.29 2.4 12.5 1 48.8
2008-12-19 09:09:50 51°25.386 2°50.29 3 12.5 -999 46.8
2008-12-19 09:09:55 51°25.403 2°50.292 3.9 12.5 3 47
2008-12-19 09:10:00 51°25.42 2°50.289 2.4 12.4 -999 48.3
2008-12-19 09:10:05 51°25.437 2°50.292 4.6 12.5 359 47.5
2008-12-19 09:10:10 51°25.454 2°50.29 1.1 12.3 -999 48.2
2008-12-19 09:10:15 51°25.472 2°50.292 3 12.4 2 49.3
2008-12-19 09:10:20 51°25.488 2°50.29 2.1 12.2 1 47.9
2008-12-19 09:10:25 51°25.506 2°50.291 3 12.3 357 48.1
2008-12-19 09:10:30 51°25.522 2°50.291 1.2 12.2 1 47.3
2008-12-19 09:10:34 51°25.536 2°50.292 3.1 12.4 359 45.8
2008-12-19 09:10:40 51°25.557 2°50.291 2.5 12.4 1 45.8
2008-12-19 09:10:45 51°25.574 2°50.292 1.8 12.4 1 48.7
2008-12-19 09:10:50 51°25.591 2°50.292 2.4 12.4 -999 49.7
2008-12-19 09:10:54 51°25.605 2°50.292 2.5 12.2 2 46.8
2008-12-19 09:11:00 51°25.625 2°50.293 2.3 12.3 1 48.1
2008-12-19 09:11:05 51°25.642 2°50.294 3.2 12.3 1 44.6
2008-12-19 09:11:10 51°25.659 2°50.294 3.1 12.2 -999 45.8
2008-12-19 09:11:15 51°25.676 2°50.293 1.8 12.2 -999 45.8
2008-12-19 09:11:20 51°25.693 2°50.295 2.7 12.5 3 46
2008-12-19 09:11:25 51°25.71 2°50.294 2.2 12 -999 40.6
2008-12-19 09:11:30 51°25.727 2°50.296 3.9 12.1 4 46.3
2008-12-19 09:11:35 51°25.744 2°50.293 2.5 12.3 356 46.9
2008-12-19 09:11:40 51°25.761 2°50.295 2.5 12.3 1 48.1
2008-12-19 09:11:45 51°25.778 2°50.293 1.7 12.3 359 49.2
2008-12-19 09:11:49 51°25.791 2°50.294 2.2 12.4 -999 46.4
2008-12-19 09:11:55 51°25.812 2°50.293 2 12.4 359 46.7
2008-12-19 09:12:00 51°25.829 2°50.294 2.4 12.2 2 47.2
2008-12-19 09:12:05 51°25.846 2°50.294 3.2 12.3 1 47.4
2008-12-19 09:12:10 51°25.863 2°50.295 2.8 12.2 3 43.9
2008-12-19 09:12:15 51°25.88 2°50.295 3.5 12.2 -999 46.3
2008-12-19 09:12:20 51°25.897 2°50.294 1.9 11.9 1 44.2
2008-12-19 09:12:25 51°25.913 2°50.295 2 12.2 1 49.8
2008-12-19 09:12:30 51°25.93 2°50.296 3.3 12.1 -999 47.2
2008-12-19 09:12:35 51°25.947 2°50.295 1.5 12.1 1 47.8
2008-12-19 09:12:40 51°25.964 2°50.295 2.4 12.1 357 47.8
2008-12-19 09:12:45 51°25.981 2°50.296 2 12.3 3 47.2
2008-12-19 09:12:50 51°25.998 2°50.294 1.4 12.2 356 48.9
2008-12-19 09:12:55 51°26.015 2°50.295 2 12.4 2 49.6
2008-12-19 09:13:00 51°26.032 2°50.294 1.5 12.5 359 45.6
2008-12-19 09:13:05 51°26.049 2°50.294 2.1 12.2 -999 42.8
2008-12-19 09:13:10 51°26.066 2°50.295 2.7 12.3 1 46.1
2008-12-19 09:13:15 51°26.083 2°50.294 1.9 12.4 358 45.8
2008-12-19 09:13:20 51°26.1 2°50.294 1.9 12.4 -999 45.7
2008-12-19 09:13:25 51°26.117 2°50.293 1.9 12.4 359 50.6
2008-12-19 09:13:30 51°26.134 2°50.294 1.7 12.3 1 46.5
2008-12-19 09:13:35 51°26.151 2°50.294 1.8 12.2 -999 47.7
2008-12-19 09:13:40 51°26.169 2°50.293 3.2 12.3 357 44.6
2008-12-19 09:13:45 51°26.185 2°50.293 1 12.4 1 47.3
2008-12-19 09:13:49 51°26.199 2°50.293 2.1 12.4 359 47.7
2008-12-19 09:13:55 51°26.219 2°50.294 2.3 12.2 3 46.5
2008-12-19 09:14:00 51°26.236 2°50.294 3.5 12 359 46.1
2008-12-19 09:14:05 51°26.253 2°50.295 1.7 12 3 43.8
2008-12-19 09:14:10 51°26.27 2°50.295 3.9 12.1 359 46.5
2008-12-19 09:14:15 51°26.286 2°50.295 1.8 12 -999 47.5
2008-12-19 09:14:20 51°26.303 2°50.295 2.2 12.1 358 46.6
2008-12-19 09:14:25 51°26.32 2°50.293 1.5 11.9 358 48.5
2008-12-19 09:14:30 51°26.336 2°50.294 1.7 12 1 49.2
2008-12-19 09:14:35 51°26.353 2°50.293 2 12.2 357 46.1
2008-12-19 09:14:40 51°26.37 2°50.295 1.4 12 6 51.9
2008-12-19 09:14:45 51°26.386 2°50.301 5.3 11.8 14 24.2
2008-12-19 09:14:50 51°26.4 2°50.311 14.5 11.5 23 23.7
2008-12-19 09:14:55 51°26.413 2°50.324 25.1 11.1 32 23.2
2008-12-19 09:15:00 51°26.425 2°50.34 35.9 11.2 41 23.3
2008-12-19 09:15:05 51°26.434 2°50.36 43.1 10.9 52 23.4
2008-12-19 09:15:10 51°26.442 2°50.38 53.5 10.7 60 23.3
2008-12-19 09:15:14 51°26.447 2°50.398 63.5 11.1 64 23.5
2008-12-19 09:15:20 51°26.454 2°50.425 69.2 11.3 72 23.8
2008-12-19 09:15:25 51°26.462 2°50.447 70.4 11.3 55 24
2008-12-19 09:15:30 51°26.47 2°50.469 62.9 11.4 62 24.1
2008-12-19 09:15:35 51°26.477 2°50.493 66.4 11.7 64 24.2
2008-12-19 09:15:40 51°26.486 2°50.513 64.6 11.5 56 24.1
2008-12-19 09:15:45 51°26.493 2°50.537 63.1 11.9 64 23.9
2008-12-19 09:15:50 51°26.503 2°50.56 63.6 12.2 56 23.9
2008-12-19 09:15:55 51°26.511 2°50.582 61.4 11.8 59 24
2008-12-19 09:16:00 51°26.519 2°50.605 62.6 11.9 58 24.2
2008-12-19 09:16:05 51°26.529 2°50.627 59.6 12 57 23.9
2008-12-19 09:16:10 51°26.537 2°50.649 59.9 11.9 59 23.7
2008-12-19 09:16:15 51°26.545 2°50.672 62 11.8 58 24.2
2008-12-19 09:16:20 51°26.556 2°50.693 57.6 12 60 23.9
2008-12-19 09:16:25 51°26.564 2°50.717 62.5 12 55 23.9
2008-12-19 09:16:29 51°26.573 2°50.732 56.7 11.9 50 24
2008-12-19 09:16:35 51°26.583 2°50.76 59.1 12.2 61 23.8
2008-12-19 09:16:40 51°26.593 2°50.781 59.6 12.1 52 23.5
2008-12-19 09:16:45 51°26.602 2°50.804 57.7 11.7 59 23.6
2008-12-19 09:16:49 51°26.609 2°50.821 59.8 12.1 57 23.5
2008-12-19 09:16:55 51°26.62 2°50.849 61.1 12.3 59 24
2008-12-19 09:17:00 51°26.629 2°50.871 60.2 11.8 59 24
2008-12-19 09:17:05 51°26.637 2°50.894 61.6 11.9 60 23.8
2008-12-19 09:17:10 51°26.646 2°50.916 60.3 12.1 57 23.8
2008-12-19 09:17:15 51°26.654 2°50.94 62.6 12.1 65 22.4
2008-12-19 09:17:20 51°26.663 2°50.962 63.7 12.2 52 22.7
2008-12-19 09:17:25 51°26.671 2°50.986 59.9 11.9 66 24.1
2008-12-19 09:17:30 51°26.679 2°51.009 64.9 11.9 59 24.6
2008-12-19 09:17:34 51°26.686 2°51.027 62.7 12.1 60 23.9
2008-12-19 09:17:40 51°26.695 2°51.055 62 11.7 62 22.3
2008-12-19 09:17:45 51°26.702 2°51.08 64.9 12.3 67 25
2008-12-19 09:17:50 51°26.712 2°51.102 65.6 12.1 53 26.4
2008-12-19 09:17:55 51°26.72 2°51.124 58.3 11.7 63 26.4
2008-12-19 09:18:00 51°26.727 2°51.148 65.3 12 59 26.1
2008-12-19 09:18:05 51°26.737 2°51.17 62.7 12 59 25.4
2008-12-19 09:18:09 51°26.743 2°51.189 62.2 11.8 60 25
2008-12-19 09:18:14 51°26.75 2°51.212 63.4 11.9 67 24.9
2008-12-19 09:18:20 51°26.76 2°51.24 67 12 57 24.6
2008-12-19 09:18:25 51°26.769 2°51.263 61.2 11.9 66 24.4
2008-12-19 09:18:29 51°26.774 2°51.282 64.9 11.8 62 24
2008-12-19 09:18:34 51°26.783 2°51.305 65 12.1 62 24.4
2008-12-19 09:18:40 51°26.792 2°51.333 63.7 12 61 24.5
2008-12-19 09:18:45 51°26.8 2°51.357 64.6 12 64 24.1
2008-12-19 09:18:49 51°26.806 2°51.375 65.2 12.1 59 24.1
2008-12-19 09:18:54 51°26.814 2°51.399 64.1 12.2 62 24
2008-12-19 09:19:00 51°26.824 2°51.427 64.1 12 61 23.9
2008-12-19 09:19:05 51°26.831 2°51.451 64.9 11.9 61 23.1
2008-12-19 09:19:09 51°26.838 2°51.469 63.9 12 63 21.7
2008-12-19 09:19:14 51°26.845 2°51.494 65.6 12 59 23.9
2008-12-19 09:19:20 51°26.856 2°51.519 63 11.6 60 24.6
2008-12-19 09:19:25 51°26.862 2°51.545 64.5 12.2 66 24.7
2008-12-19 09:19:29 51°26.87 2°51.564 66.1 12.5 56 25.1
2008-12-19 09:19:34 51°26.878 2°51.586 62.2 11.9 63 24.7
2008-12-19 09:19:40 51°26.887 2°51.614 64.4 11.9 60 24.5
2008-12-19 09:19:45 51°26.895 2°51.638 64.9 12 62 24.1
2008-12-19 09:19:49 51°26.902 2°51.656 64 11.9 62 23.6
2008-12-19 09:19:54 51°26.909 2°51.68 64.7 11.9 62 21.2
2008-12-19 09:20:00 51°26.919 2°51.708 64.9 11.9 62 21.9
2008-12-19 09:20:05 51°26.926 2°51.731 64.6 12 61 24.3
2008-12-19 09:20:09 51°26.933 2°51.75 64.6 12.4 64 25.1
2008-12-19 09:20:14 51°26.941 2°51.774 63.8 12.2 56 25
2008-12-19 09:20:20 51°26.95 2°51.802 63.6 11.8 68 25
2008-12-19 09:20:25 51°26.959 2°51.825 64.5 12.2 59 23.3
2008-12-19 09:20:29 51°26.966 2°51.843 63.4 11.9 59 23.8
2008-12-19 09:20:34 51°26.973 2°51.867 64.3 12.1 65 24.6
2008-12-19 09:20:40 51°26.984 2°51.894 64.2 12.1 53 24.3
2008-12-19 09:20:45 51°26.991 2°51.918 61.4 11.9 68 24
2008-12-19 09:20:49 51°26.997 2°51.936 65.9 11.8 57 23.2
2008-12-19 09:20:54 51°27.007 2°51.958 61.9 11.9 64 22.7
2008-12-19 09:21:00 51°27.016 2°51.986 63.7 12 61 21.1
2008-12-19 09:21:05 51°27.024 2°52.008 64 11.8 60 21.7
2008-12-19 09:21:09 51°27.03 2°52.028 64 11.9 62 22.5
2008-12-19 09:21:14 51°27.039 2°52.049 62.9 12 59 20.6
2008-12-19 09:21:20 51°27.048 2°52.078 63.4 12.1 62 19.8